Le Ponant — FGZZ — position and weather

sailwx.info

Track history (hours):
 
Tides and Currents Weather Stations Pressure Air Temp Water Temp Dewpoint Dewpoint Depression Visibility Wind Speed Wind Dir Waves Ship Positions

Le Ponant

Operator: Compangy des Iles du Ponant

Last reported at 2014-Oct-31 03:26 UTC. Time now 2014-Oct-31 13:22 UTC.
Position N 43°19' E 005°22'.

Length 84 m; draft 4.2 m.

Type: Passenger vessel. MMSI: 227186000.

Date/timePositionNaut miles runAvg speedWind from/ knotsBaromVisibWave heightAir tempDewpointWater temp
2014-Oct-31 03:26N 43°19' E 005°22'0 0.0
2014-Oct-29 20:26N 43°19' E 005°22'0 0.0
2014-Oct-29 01:32N 43°19' E 005°22'0 0.0
2014-Oct-28 22:05N 43°19' E 005°22'0 0.0
2014-Oct-28 19:08N 43°19' E 005°22'0 0.0
2014-Oct-28 16:08N 43°19' E 005°22'0 0.0
2014-Oct-28 14:26N 43°19' E 005°22'0 0.0
2014-Oct-28 13:32N 43°19' E 005°22'0 0.0
2014-Oct-28 11:20N 43°19' E 005°22'0 0.0
2014-Oct-28 08:08N 43°19' E 005°22'0 0.0
2014-Oct-28 07:05N 43°19' E 005°22'0 0.0
2014-Oct-28 06:23N 43°19' E 005°22'0 0.0
2014-Oct-28 04:26N 43°19' E 005°22'0 0.0
2014-Oct-28 02:26N 43°19' E 005°22'0 0.0
2014-Oct-28 00:29N 43°19' E 005°22'0 0.0
2014-Oct-27 23:29N 43°19' E 005°22'0 0.0
2014-Oct-27 21:17N 43°19' E 005°22'0 0.0
2014-Oct-27 19:32N 43°19' E 005°22'0 0.0
2014-Oct-27 18:17N 43°19' E 005°22'0 0.0
2014-Oct-27 12:26N 43°19' E 005°22'0 0.0
2014-Oct-27 07:14N 43°19' E 005°22'0 0.0
2014-Oct-27 04:08N 43°19' E 005°22'0 0.0
2014-Oct-27 03:08N 43°19' E 005°22'0 0.0
2014-Oct-25 09:06N 43°19' E 005°22'0 0.0
2014-Oct-25 08:24N 43°19' E 005°22'0 0.0
2014-Oct-25 07:18N 43°19' E 005°22'0 0.0
2014-Oct-25 06:30N 43°19' E 005°22'2 1.8
2014-Oct-25 05:30N 43°18' E 005°21'7 6.1
2014-Oct-25 04:22N 43°11' E 005°21'58 8.0
2014-Oct-24 21:04N 43°06' E 006°40'510.7
2014-Oct-24 20:33N 43°10' E 006°45'1110.7
2014-Oct-24 19:33N 43°19' E 006°54'1010.4
2014-Oct-24 18:33N 43°27' E 007°03'1110.7
2014-Oct-24 17:33N 43°35' E 007°12'7 1.8
2014-Oct-24 13:32N 43°42' E 007°17'0 0.0
2014-Oct-24 12:32N 43°42' E 007°17'0 0.0
2014-Oct-24 11:32N 43°42' E 007°17'0 0.0
2014-Oct-24 10:32N 43°42' E 007°17'0 0.0
2014-Oct-24 09:32N 43°42' E 007°17'0 0.0
2014-Oct-24 08:32N 43°42' E 007°17'0 0.0
2014-Oct-24 07:32N 43°42' E 007°17'0 0.0
2014-Oct-24 06:32N 43°42' E 007°17'0 0.4
2014-Oct-24 05:33N 43°41' E 007°17'8 8.2
2014-Oct-24 04:33N 43°33' E 007°21'9 8.8
2014-Oct-24 03:33N 43°25' E 007°17'7 7.4
2014-Oct-24 02:33N 43°18' E 007°16'11 7.6
2014-Oct-24 01:07N 43°07' E 007°16'  
Track history (hours):
 
Tides and Currents Weather Stations Pressure Air Temp Water Temp Dewpoint Dewpoint Depression Visibility Wind Speed Wind Dir Waves Ship Positions

Le Ponant

Operator: Compangy des Iles du Ponant

Last reported at 2014-Oct-31 03:26 UTC. Time now 2014-Oct-31 13:22 UTC.
Position N 43°19' E 005°22'.

Length 84 m; draft 4.2 m.

Type: Passenger vessel. MMSI: 227186000.

Date/timePositionNaut miles runAvg speedWind from/ knotsBaromVisibWave heightAir tempDewpointWater temp
2014-Oct-31 03:26N 43°19' E 005°22'0 0.0
2014-Oct-29 20:26N 43°19' E 005°22'0 0.0
2014-Oct-29 01:32N 43°19' E 005°22'0 0.0
2014-Oct-28 22:05N 43°19' E 005°22'0 0.0
2014-Oct-28 19:08N 43°19' E 005°22'0 0.0
2014-Oct-28 16:08N 43°19' E 005°22'0 0.0
2014-Oct-28 14:26N 43°19' E 005°22'0 0.0
2014-Oct-28 13:32N 43°19' E 005°22'0 0.0
2014-Oct-28 11:20N 43°19' E 005°22'0 0.0
2014-Oct-28 08:08N 43°19' E 005°22'0 0.0
2014-Oct-28 07:05N 43°19' E 005°22'0 0.0
2014-Oct-28 06:23N 43°19' E 005°22'0 0.0
2014-Oct-28 04:26N 43°19' E 005°22'0 0.0
2014-Oct-28 02:26N 43°19' E 005°22'0 0.0
2014-Oct-28 00:29N 43°19' E 005°22'0 0.0
2014-Oct-27 23:29N 43°19' E 005°22'0 0.0
2014-Oct-27 21:17N 43°19' E 005°22'0 0.0
2014-Oct-27 19:32N 43°19' E 005°22'0 0.0
2014-Oct-27 18:17N 43°19' E 005°22'0 0.0
2014-Oct-27 12:26N 43°19' E 005°22'0 0.0
2014-Oct-27 07:14N 43°19' E 005°22'0 0.0
2014-Oct-27 04:08N 43°19' E 005°22'0 0.0
2014-Oct-27 03:08N 43°19' E 005°22'0 0.0
2014-Oct-25 09:06N 43°19' E 005°22'0 0.0
2014-Oct-25 08:24N 43°19' E 005°22'0 0.0
2014-Oct-25 07:18N 43°19' E 005°22'0 0.0
2014-Oct-25 06:30N 43°19' E 005°22'2 1.8
2014-Oct-25 05:30N 43°18' E 005°21'7 6.1
2014-Oct-25 04:22N 43°11' E 005°21'58 8.0
2014-Oct-24 21:04N 43°06' E 006°40'510.7
2014-Oct-24 20:33N 43°10' E 006°45'1110.7
2014-Oct-24 19:33N 43°19' E 006°54'1010.4
2014-Oct-24 18:33N 43°27' E 007°03'1110.7
2014-Oct-24 17:33N 43°35' E 007°12'7 1.8
2014-Oct-24 13:32N 43°42' E 007°17'0 0.0
2014-Oct-24 12:32N 43°42' E 007°17'0 0.0
2014-Oct-24 11:32N 43°42' E 007°17'0 0.0
2014-Oct-24 10:32N 43°42' E 007°17'0 0.0
2014-Oct-24 09:32N 43°42' E 007°17'0 0.0
2014-Oct-24 08:32N 43°42' E 007°17'0 0.0
2014-Oct-24 07:32N 43°42' E 007°17'0 0.0
2014-Oct-24 06:32N 43°42' E 007°17'0 0.4
2014-Oct-24 05:33N 43°41' E 007°17'8 8.2
2014-Oct-24 04:33N 43°33' E 007°21'9 8.8
2014-Oct-24 03:33N 43°25' E 007°17'7 7.4
2014-Oct-24 02:33N 43°18' E 007°16'11 7.6
2014-Oct-24 01:07N 43°07' E 007°16'  

Dump ship's entire track history